sensor_id;sensor_type;location;lat;lon;timestamp;P1;durP1;ratioP1;P2;durP2;ratioP2
10450;SDS011;5273;51.290;6.918;2023-02-04T00:01:32;13.53;;;4.20;;
10450;SDS011;5273;51.290;6.918;2023-02-04T00:03:59;19.60;;;4.33;;
10450;SDS011;5273;51.290;6.918;2023-02-04T00:06:26;20.70;;;4.03;;
10450;SDS011;5273;51.290;6.918;2023-02-04T00:08:53;20.00;;;3.50;;
10450;SDS011;5273;51.290;6.918;2023-02-04T00:11:20;21.37;;;3.67;;
10450;SDS011;5273;51.290;6.918;2023-02-04T00:13:48;12.73;;;3.70;;
10450;SDS011;5273;51.290;6.918;2023-02-04T00:16:15;18.30;;;3.83;;
10450;SDS011;5273;51.290;6.918;2023-02-04T00:18:42;19.67;;;3.67;;
10450;SDS011;5273;51.290;6.918;2023-02-04T00:21:09;18.83;;;4.47;;
10450;SDS011;5273;51.290;6.918;2023-02-04T00:23:37;23.60;;;4.40;;
10450;SDS011;5273;51.290;6.918;2023-02-04T00:26:04;22.53;;;4.50;;
10450;SDS011;5273;51.290;6.918;2023-02-04T00:28:31;17.23;;;3.77;;
10450;SDS011;5273;51.290;6.918;2023-02-04T00:30:59;24.70;;;5.40;;
10450;SDS011;5273;51.290;6.918;2023-02-04T00:33:26;22.30;;;4.53;;
10450;SDS011;5273;51.290;6.918;2023-02-04T00:35:54;17.47;;;4.50;;
10450;SDS011;5273;51.290;6.918;2023-02-04T00:38:21;15.37;;;4.30;;
10450;SDS011;5273;51.290;6.918;2023-02-04T00:40:48;16.63;;;4.63;;
10450;SDS011;5273;51.290;6.918;2023-02-04T00:43:15;23.57;;;4.57;;
10450;SDS011;5273;51.290;6.918;2023-02-04T00:45:42;13.53;;;3.77;;
10450;SDS011;5273;51.290;6.918;2023-02-04T00:48:11;19.53;;;4.33;;
10450;SDS011;5273;51.290;6.918;2023-02-04T00:50:38;18.97;;;3.70;;
10450;SDS011;5273;51.290;6.918;2023-02-04T00:53:05;15.83;;;4.20;;
10450;SDS011;5273;51.290;6.918;2023-02-04T00:55:32;16.50;;;4.43;;
10450;SDS011;5273;51.290;6.918;2023-02-04T00:57:59;13.30;;;3.73;;
10450;SDS011;5273;51.290;6.918;2023-02-04T01:00:26;17.90;;;4.10;;
10450;SDS011;5273;51.290;6.918;2023-02-04T01:02:53;18.80;;;4.43;;
10450;SDS011;5273;51.290;6.918;2023-02-04T01:05:22;16.63;;;4.07;;
10450;SDS011;5273;51.290;6.918;2023-02-04T01:07:49;19.37;;;4.60;;
10450;SDS011;5273;51.290;6.918;2023-02-04T01:10:16;21.03;;;5.03;;
10450;SDS011;5273;51.290;6.918;2023-02-04T01:12:43;20.83;;;4.60;;
10450;SDS011;5273;51.290;6.918;2023-02-04T01:15:10;20.23;;;5.10;;
10450;SDS011;5273;51.290;6.918;2023-02-04T01:17:37;23.17;;;4.70;;
10450;SDS011;5273;51.290;6.918;2023-02-04T01:20:05;21.07;;;4.87;;
10450;SDS011;5273;51.290;6.918;2023-02-04T01:22:34;16.47;;;4.47;;
10450;SDS011;5273;51.290;6.918;2023-02-04T01:25:01;12.70;;;4.13;;
10450;SDS011;5273;51.290;6.918;2023-02-04T01:27:28;15.80;;;4.23;;
10450;SDS011;5273;51.290;6.918;2023-02-04T01:29:55;22.53;;;4.90;;
10450;SDS011;5273;51.290;6.918;2023-02-04T01:32:22;18.20;;;4.40;;
10450;SDS011;5273;51.290;6.918;2023-02-04T01:34:49;16.93;;;5.03;;
10450;SDS011;5273;51.290;6.918;2023-02-04T01:37:16;18.97;;;3.93;;
10450;SDS011;5273;51.290;6.918;2023-02-04T01:39:45;20.60;;;5.33;;
10450;SDS011;5273;51.290;6.918;2023-02-04T01:42:11;22.60;;;4.20;;
10450;SDS011;5273;51.290;6.918;2023-02-04T01:44:39;21.53;;;5.17;;
10450;SDS011;5273;51.290;6.918;2023-02-04T01:47:06;14.67;;;4.20;;
10450;SDS011;5273;51.290;6.918;2023-02-04T01:49:33;21.77;;;4.33;;
10450;SDS011;5273;51.290;6.918;2023-02-04T01:52:00;20.20;;;4.50;;
10450;SDS011;5273;51.290;6.918;2023-02-04T01:54:28;19.60;;;4.97;;
10450;SDS011;5273;51.290;6.918;2023-02-04T01:56:56;19.73;;;4.47;;
10450;SDS011;5273;51.290;6.918;2023-02-04T01:59:23;24.27;;;5.43;;
10450;SDS011;5273;51.290;6.918;2023-02-04T02:01:51;15.33;;;4.10;;
10450;SDS011;5273;51.290;6.918;2023-02-04T02:04:19;18.40;;;4.13;;
10450;SDS011;5273;51.290;6.918;2023-02-04T02:06:52;22.63;;;4.50;;
10450;SDS011;5273;51.290;6.918;2023-02-04T02:09:22;22.00;;;4.40;;
10450;SDS011;5273;51.290;6.918;2023-02-04T02:11:50;15.30;;;3.93;;
10450;SDS011;5273;51.290;6.918;2023-02-04T02:14:18;15.20;;;4.33;;
10450;SDS011;5273;51.290;6.918;2023-02-04T02:16:46;22.20;;;3.97;;
10450;SDS011;5273;51.290;6.918;2023-02-04T02:19:14;23.63;;;4.80;;
10450;SDS011;5273;51.290;6.918;2023-02-04T02:21:46;19.23;;;3.70;;
10450;SDS011;5273;51.290;6.918;2023-02-04T02:24:27;19.37;;;4.13;;
10450;SDS011;5273;51.290;6.918;2023-02-04T02:26:56;19.93;;;4.00;;
10450;SDS011;5273;51.290;6.918;2023-02-04T02:29:25;17.30;;;3.83;;
10450;SDS011;5273;51.290;6.918;2023-02-04T02:31:52;23.63;;;5.30;;
10450;SDS011;5273;51.290;6.918;2023-02-04T02:34:21;9.70;;;3.73;;
10450;SDS011;5273;51.290;6.918;2023-02-04T02:36:48;17.23;;;4.27;;
10450;SDS011;5273;51.290;6.918;2023-02-04T02:39:16;17.57;;;4.27;;
10450;SDS011;5273;51.290;6.918;2023-02-04T02:41:44;19.23;;;3.60;;
10450;SDS011;5273;51.290;6.918;2023-02-04T02:44:11;15.90;;;3.60;;
10450;SDS011;5273;51.290;6.918;2023-02-04T02:46:41;20.00;;;4.33;;
10450;SDS011;5273;51.290;6.918;2023-02-04T02:49:09;17.70;;;4.00;;
10450;SDS011;5273;51.290;6.918;2023-02-04T02:51:39;17.23;;;3.90;;
10450;SDS011;5273;51.290;6.918;2023-02-04T02:54:07;21.00;;;5.03;;
10450;SDS011;5273;51.290;6.918;2023-02-04T02:56:45;32.03;;;4.50;;
10450;SDS011;5273;51.290;6.918;2023-02-04T02:59:12;23.50;;;4.30;;
10450;SDS011;5273;51.290;6.918;2023-02-04T03:01:39;13.20;;;4.10;;
10450;SDS011;5273;51.290;6.918;2023-02-04T03:04:06;15.63;;;3.37;;
10450;SDS011;5273;51.290;6.918;2023-02-04T03:06:34;18.23;;;4.40;;
10450;SDS011;5273;51.290;6.918;2023-02-04T03:09:01;15.60;;;4.03;;
10450;SDS011;5273;51.290;6.918;2023-02-04T03:11:28;19.53;;;4.20;;
10450;SDS011;5273;51.290;6.918;2023-02-04T03:13:58;18.53;;;4.23;;
10450;SDS011;5273;51.290;6.918;2023-02-04T03:16:26;18.30;;;4.30;;
10450;SDS011;5273;51.290;6.918;2023-02-04T03:18:53;17.20;;;4.27;;
10450;SDS011;5273;51.290;6.918;2023-02-04T03:21:20;21.53;;;4.20;;
10450;SDS011;5273;51.290;6.918;2023-02-04T03:23:48;20.93;;;3.87;;
10450;SDS011;5273;51.290;6.918;2023-02-04T03:26:15;22.03;;;5.00;;
10450;SDS011;5273;51.290;6.918;2023-02-04T03:28:42;20.97;;;3.97;;
10450;SDS011;5273;51.290;6.918;2023-02-04T03:31:11;16.60;;;4.20;;
10450;SDS011;5273;51.290;6.918;2023-02-04T03:33:37;23.27;;;4.97;;
10450;SDS011;5273;51.290;6.918;2023-02-04T03:36:06;16.40;;;3.60;;
10450;SDS011;5273;51.290;6.918;2023-02-04T03:38:33;23.23;;;4.00;;
10450;SDS011;5273;51.290;6.918;2023-02-04T03:41:00;17.30;;;3.77;;
10450;SDS011;5273;51.290;6.918;2023-02-04T03:43:27;17.93;;;3.43;;
10450;SDS011;5273;51.290;6.918;2023-02-04T03:45:55;16.43;;;3.40;;
10450;SDS011;5273;51.290;6.918;2023-02-04T03:48:23;20.40;;;3.97;;
10450;SDS011;5273;51.290;6.918;2023-02-04T03:50:50;20.83;;;4.53;;
10450;SDS011;5273;51.290;6.918;2023-02-04T03:53:17;23.57;;;4.40;;
10450;SDS011;5273;51.290;6.918;2023-02-04T03:55:46;20.00;;;3.77;;
10450;SDS011;5273;51.290;6.918;2023-02-04T03:58:13;15.00;;;3.83;;
10450;SDS011;5273;51.290;6.918;2023-02-04T04:00:40;15.40;;;3.80;;
10450;SDS011;5273;51.290;6.918;2023-02-04T04:03:07;15.57;;;3.40;;
10450;SDS011;5273;51.290;6.918;2023-02-04T04:05:35;12.17;;;3.13;;
10450;SDS011;5273;51.290;6.918;2023-02-04T04:08:02;18.63;;;3.23;;
10450;SDS011;5273;51.290;6.918;2023-02-04T04:10:29;15.53;;;4.03;;
10450;SDS011;5273;51.290;6.918;2023-02-04T04:12:57;19.60;;;4.20;;
10450;SDS011;5273;51.290;6.918;2023-02-04T04:15:24;17.70;;;3.27;;
10450;SDS011;5273;51.290;6.918;2023-02-04T04:17:51;23.00;;;3.90;;
10450;SDS011;5273;51.290;6.918;2023-02-04T04:20:18;23.63;;;5.20;;
10450;SDS011;5273;51.290;6.918;2023-02-04T04:22:50;23.57;;;4.27;;
10450;SDS011;5273;51.290;6.918;2023-02-04T04:25:17;17.73;;;4.37;;
10450;SDS011;5273;51.290;6.918;2023-02-04T04:27:45;11.93;;;3.53;;
10450;SDS011;5273;51.290;6.918;2023-02-04T04:30:12;17.83;;;3.20;;
10450;SDS011;5273;51.290;6.918;2023-02-04T04:32:39;20.23;;;3.53;;
10450;SDS011;5273;51.290;6.918;2023-02-04T04:35:06;14.00;;;3.00;;
10450;SDS011;5273;51.290;6.918;2023-02-04T04:37:33;17.03;;;3.93;;
10450;SDS011;5273;51.290;6.918;2023-02-04T04:40:02;18.73;;;4.57;;
10450;SDS011;5273;51.290;6.918;2023-02-04T04:42:29;15.33;;;3.27;;
10450;SDS011;5273;51.290;6.918;2023-02-04T04:44:56;14.07;;;3.67;;
10450;SDS011;5273;51.290;6.918;2023-02-04T04:47:23;13.60;;;3.43;;
10450;SDS011;5273;51.290;6.918;2023-02-04T04:49:50;26.77;;;4.00;;
10450;SDS011;5273;51.290;6.918;2023-02-04T04:52:17;20.67;;;3.30;;
10450;SDS011;5273;51.290;6.918;2023-02-04T04:54:44;16.33;;;3.70;;
10450;SDS011;5273;51.290;6.918;2023-02-04T04:57:13;29.97;;;3.57;;
10450;SDS011;5273;51.290;6.918;2023-02-04T04:59:39;9.40;;;3.20;;
10450;SDS011;5273;51.290;6.918;2023-02-04T05:02:07;17.43;;;3.83;;
10450;SDS011;5273;51.290;6.918;2023-02-04T05:04:34;14.77;;;3.40;;
10450;SDS011;5273;51.290;6.918;2023-02-04T05:07:01;15.13;;;3.57;;
10450;SDS011;5273;51.290;6.918;2023-02-04T05:09:28;13.70;;;3.27;;
10450;SDS011;5273;51.290;6.918;2023-02-04T05:11:55;11.43;;;3.37;;
10450;SDS011;5273;51.290;6.918;2023-02-04T05:14:24;18.50;;;3.47;;
10450;SDS011;5273;51.290;6.918;2023-02-04T05:16:50;19.67;;;4.10;;
10450;SDS011;5273;51.290;6.918;2023-02-04T05:19:17;9.83;;;3.00;;
10450;SDS011;5273;51.290;6.918;2023-02-04T05:21:44;18.90;;;3.90;;
10450;SDS011;5273;51.290;6.918;2023-02-04T05:24:12;15.67;;;3.90;;
10450;SDS011;5273;51.290;6.918;2023-02-04T05:26:39;9.93;;;3.40;;
10450;SDS011;5273;51.290;6.918;2023-02-04T05:29:06;20.47;;;4.50;;
10450;SDS011;5273;51.290;6.918;2023-02-04T05:31:35;17.80;;;3.80;;
10450;SDS011;5273;51.290;6.918;2023-02-04T05:34:02;20.40;;;3.70;;
10450;SDS011;5273;51.290;6.918;2023-02-04T05:36:29;23.43;;;4.97;;
10450;SDS011;5273;51.290;6.918;2023-02-04T05:38:56;16.87;;;3.60;;
10450;SDS011;5273;51.290;6.918;2023-02-04T05:41:23;20.27;;;4.37;;
10450;SDS011;5273;51.290;6.918;2023-02-04T05:43:50;16.13;;;3.83;;
10450;SDS011;5273;51.290;6.918;2023-02-04T05:46:17;12.23;;;3.77;;
10450;SDS011;5273;51.290;6.918;2023-02-04T05:48:46;12.43;;;4.00;;
10450;SDS011;5273;51.290;6.918;2023-02-04T05:51:13;13.20;;;3.60;;
10450;SDS011;5273;51.290;6.918;2023-02-04T05:53:40;18.17;;;4.40;;
10450;SDS011;5273;51.290;6.918;2023-02-04T05:56:07;16.70;;;3.90;;
10450;SDS011;5273;51.290;6.918;2023-02-04T05:58:34;15.30;;;4.27;;
10450;SDS011;5273;51.290;6.918;2023-02-04T06:01:01;20.23;;;3.97;;
10450;SDS011;5273;51.290;6.918;2023-02-04T06:03:29;12.07;;;3.83;;
10450;SDS011;5273;51.290;6.918;2023-02-04T06:05:58;19.40;;;3.93;;
10450;SDS011;5273;51.290;6.918;2023-02-04T06:08:25;12.70;;;3.83;;
10450;SDS011;5273;51.290;6.918;2023-02-04T06:10:52;16.13;;;4.03;;
10450;SDS011;5273;51.290;6.918;2023-02-04T06:13:19;20.07;;;4.07;;
10450;SDS011;5273;51.290;6.918;2023-02-04T06:15:46;20.63;;;3.43;;
10450;SDS011;5273;51.290;6.918;2023-02-04T06:18:13;25.43;;;4.33;;
10450;SDS011;5273;51.290;6.918;2023-02-04T06:20:40;20.00;;;4.20;;
10450;SDS011;5273;51.290;6.918;2023-02-04T06:23:09;18.50;;;4.43;;
10450;SDS011;5273;51.290;6.918;2023-02-04T06:25:36;21.33;;;4.10;;
10450;SDS011;5273;51.290;6.918;2023-02-04T06:28:03;23.83;;;5.27;;
10450;SDS011;5273;51.290;6.918;2023-02-04T06:30:30;18.67;;;5.13;;
10450;SDS011;5273;51.290;6.918;2023-02-04T06:32:57;18.50;;;4.87;;
10450;SDS011;5273;51.290;6.918;2023-02-04T06:35:24;24.13;;;4.77;;
10450;SDS011;5273;51.290;6.918;2023-02-04T06:37:51;18.37;;;3.77;;
10450;SDS011;5273;51.290;6.918;2023-02-04T06:40:20;17.20;;;4.30;;
10450;SDS011;5273;51.290;6.918;2023-02-04T06:42:47;14.43;;;4.10;;
10450;SDS011;5273;51.290;6.918;2023-02-04T06:45:14;19.03;;;4.87;;
10450;SDS011;5273;51.290;6.918;2023-02-04T06:47:41;19.60;;;4.53;;
10450;SDS011;5273;51.290;6.918;2023-02-04T06:50:08;14.70;;;4.23;;
10450;SDS011;5273;51.290;6.918;2023-02-04T06:52:36;15.73;;;4.40;;
10450;SDS011;5273;51.290;6.918;2023-02-04T06:55:03;19.43;;;4.23;;
10450;SDS011;5273;51.290;6.918;2023-02-04T06:57:32;19.00;;;4.60;;
10450;SDS011;5273;51.290;6.918;2023-02-04T06:59:58;15.03;;;4.57;;
10450;SDS011;5273;51.290;6.918;2023-02-04T07:02:25;17.53;;;4.53;;
10450;SDS011;5273;51.290;6.918;2023-02-04T07:04:53;13.60;;;3.83;;
10450;SDS011;5273;51.290;6.918;2023-02-04T07:07:20;24.10;;;5.47;;
10450;SDS011;5273;51.290;6.918;2023-02-04T07:09:47;15.70;;;3.70;;
10450;SDS011;5273;51.290;6.918;2023-02-04T07:12:14;24.03;;;4.57;;
10450;SDS011;5273;51.290;6.918;2023-02-04T07:14:42;20.07;;;5.10;;
10450;SDS011;5273;51.290;6.918;2023-02-04T07:17:09;15.67;;;4.57;;
10450;SDS011;5273;51.290;6.918;2023-02-04T07:19:36;13.57;;;4.60;;
10450;SDS011;5273;51.290;6.918;2023-02-04T07:22:03;16.67;;;4.57;;
10450;SDS011;5273;51.290;6.918;2023-02-04T07:24:30;21.93;;;5.00;;
10450;SDS011;5273;51.290;6.918;2023-02-04T07:26:57;17.30;;;4.33;;
10450;SDS011;5273;51.290;6.918;2023-02-04T07:29:25;23.40;;;4.73;;
10450;SDS011;5273;51.290;6.918;2023-02-04T07:31:53;18.37;;;4.27;;
10450;SDS011;5273;51.290;6.918;2023-02-04T07:34:20;15.20;;;4.27;;
10450;SDS011;5273;51.290;6.918;2023-02-04T07:36:47;19.20;;;4.50;;
10450;SDS011;5273;51.290;6.918;2023-02-04T07:39:14;13.77;;;4.17;;
10450;SDS011;5273;51.290;6.918;2023-02-04T07:41:41;20.17;;;4.97;;
10450;SDS011;5273;51.290;6.918;2023-02-04T07:44:08;18.17;;;4.73;;
10450;SDS011;5273;51.290;6.918;2023-02-04T07:46:36;18.17;;;4.30;;
10450;SDS011;5273;51.290;6.918;2023-02-04T07:49:04;20.60;;;4.57;;
10450;SDS011;5273;51.290;6.918;2023-02-04T07:51:31;22.43;;;5.37;;
10450;SDS011;5273;51.290;6.918;2023-02-04T07:53:59;19.70;;;4.83;;
10450;SDS011;5273;51.290;6.918;2023-02-04T07:56:26;21.37;;;4.93;;
10450;SDS011;5273;51.290;6.918;2023-02-04T07:58:53;26.40;;;5.43;;
10450;SDS011;5273;51.290;6.918;2023-02-04T08:01:20;21.70;;;5.03;;
10450;SDS011;5273;51.290;6.918;2023-02-04T08:03:47;19.53;;;4.20;;
10450;SDS011;5273;51.290;6.918;2023-02-04T08:06:15;15.63;;;3.63;;
10450;SDS011;5273;51.290;6.918;2023-02-04T08:08:42;8.10;;;3.37;;
10450;SDS011;5273;51.290;6.918;2023-02-04T08:11:09;19.37;;;4.23;;
10450;SDS011;5273;51.290;6.918;2023-02-04T08:13:36;18.07;;;4.63;;
10450;SDS011;5273;51.290;6.918;2023-02-04T08:16:04;19.13;;;4.57;;
10450;SDS011;5273;51.290;6.918;2023-02-04T08:18:31;14.13;;;4.27;;
10450;SDS011;5273;51.290;6.918;2023-02-04T08:20:58;17.50;;;4.00;;
10450;SDS011;5273;51.290;6.918;2023-02-04T08:23:27;20.57;;;5.17;;
10450;SDS011;5273;51.290;6.918;2023-02-04T08:25:54;16.17;;;4.70;;
10450;SDS011;5273;51.290;6.918;2023-02-04T08:28:21;26.03;;;6.10;;
10450;SDS011;5273;51.290;6.918;2023-02-04T08:30:48;19.07;;;4.87;;
10450;SDS011;5273;51.290;6.918;2023-02-04T08:33:15;19.57;;;4.60;;
10450;SDS011;5273;51.290;6.918;2023-02-04T08:35:42;17.53;;;3.97;;
10450;SDS011;5273;51.290;6.918;2023-02-04T08:38:09;18.20;;;4.57;;
10450;SDS011;5273;51.290;6.918;2023-02-04T08:40:38;13.97;;;4.07;;
10450;SDS011;5273;51.290;6.918;2023-02-04T08:43:05;16.43;;;4.90;;
10450;SDS011;5273;51.290;6.918;2023-02-04T08:45:32;18.20;;;4.73;;
10450;SDS011;5273;51.290;6.918;2023-02-04T08:47:59;21.50;;;5.13;;
10450;SDS011;5273;51.290;6.918;2023-02-04T08:50:26;23.43;;;5.10;;
10450;SDS011;5273;51.290;6.918;2023-02-04T08:52:54;17.53;;;4.93;;
10450;SDS011;5273;51.290;6.918;2023-02-04T08:55:22;15.40;;;4.87;;
10450;SDS011;5273;51.290;6.918;2023-02-04T08:57:50;22.17;;;4.90;;
10450;SDS011;5273;51.290;6.918;2023-02-04T09:00:17;21.77;;;6.50;;
10450;SDS011;5273;51.290;6.918;2023-02-04T09:02:44;23.77;;;4.87;;
10450;SDS011;5273;51.290;6.918;2023-02-04T09:05:11;18.63;;;5.03;;
10450;SDS011;5273;51.290;6.918;2023-02-04T09:07:38;22.87;;;5.37;;
10450;SDS011;5273;51.290;6.918;2023-02-04T09:10:06;20.10;;;5.37;;
10450;SDS011;5273;51.290;6.918;2023-02-04T09:12:33;16.23;;;4.57;;
10450;SDS011;5273;51.290;6.918;2023-02-04T09:15:01;17.27;;;5.10;;
10450;SDS011;5273;51.290;6.918;2023-02-04T09:17:29;17.07;;;4.57;;
10450;SDS011;5273;51.290;6.918;2023-02-04T09:19:57;22.07;;;4.67;;
10450;SDS011;5273;51.290;6.918;2023-02-04T09:22:25;21.33;;;4.87;;
10450;SDS011;5273;51.290;6.918;2023-02-04T09:24:52;16.47;;;4.33;;
10450;SDS011;5273;51.290;6.918;2023-02-04T09:27:19;25.37;;;5.47;;
10450;SDS011;5273;51.290;6.918;2023-02-04T09:29:46;20.17;;;5.27;;
10450;SDS011;5273;51.290;6.918;2023-02-04T09:32:14;20.57;;;4.73;;
10450;SDS011;5273;51.290;6.918;2023-02-04T09:34:41;19.07;;;5.10;;
10450;SDS011;5273;51.290;6.918;2023-02-04T09:37:08;19.87;;;5.53;;
10450;SDS011;5273;51.290;6.918;2023-02-04T09:39:35;19.30;;;5.30;;
10450;SDS011;5273;51.290;6.918;2023-02-04T09:42:03;20.77;;;5.17;;
10450;SDS011;5273;51.290;6.918;2023-02-04T09:44:30;20.40;;;4.50;;
10450;SDS011;5273;51.290;6.918;2023-02-04T09:46:58;23.53;;;5.53;;
10450;SDS011;5273;51.290;6.918;2023-02-04T09:49:27;15.23;;;4.80;;
10450;SDS011;5273;51.290;6.918;2023-02-04T09:51:54;23.47;;;5.10;;
10450;SDS011;5273;51.290;6.918;2023-02-04T09:54:21;20.37;;;5.73;;
10450;SDS011;5273;51.290;6.918;2023-02-04T09:56:49;26.13;;;7.20;;
10450;SDS011;5273;51.290;6.918;2023-02-04T09:59:17;19.50;;;6.03;;
10450;SDS011;5273;51.290;6.918;2023-02-04T10:01:45;29.10;;;6.17;;
10450;SDS011;5273;51.290;6.918;2023-02-04T10:04:16;22.53;;;6.77;;
10450;SDS011;5273;51.290;6.918;2023-02-04T10:06:45;23.57;;;6.40;;
10450;SDS011;5273;51.290;6.918;2023-02-04T10:09:13;20.50;;;6.87;;
10450;SDS011;5273;51.290;6.918;2023-02-04T10:11:41;19.07;;;6.63;;
10450;SDS011;5273;51.290;6.918;2023-02-04T10:14:10;24.20;;;6.57;;
10450;SDS011;5273;51.290;6.918;2023-02-04T10:16:40;23.80;;;7.03;;
10450;SDS011;5273;51.290;6.918;2023-02-04T10:19:10;24.60;;;7.00;;
10450;SDS011;5273;51.290;6.918;2023-02-04T10:21:40;22.70;;;6.77;;
10450;SDS011;5273;51.290;6.918;2023-02-04T10:24:11;21.90;;;6.63;;
10450;SDS011;5273;51.290;6.918;2023-02-04T10:26:40;21.17;;;7.45;;
10450;SDS011;5273;51.290;6.918;2023-02-04T10:29:11;19.43;;;7.00;;
10450;SDS011;5273;51.290;6.918;2023-02-04T10:31:40;21.85;;;6.75;;
10450;SDS011;5273;51.290;6.918;2023-02-04T10:34:10;26.85;;;7.22;;
10450;SDS011;5273;51.290;6.918;2023-02-04T10:36:41;20.07;;;7.30;;
10450;SDS011;5273;51.290;6.918;2023-02-04T10:39:14;23.23;;;7.17;;
10450;SDS011;5273;51.290;6.918;2023-02-04T10:41:46;24.98;;;7.57;;
10450;SDS011;5273;51.290;6.918;2023-02-04T10:44:15;31.20;;;7.40;;
10450;SDS011;5273;51.290;6.918;2023-02-04T10:46:43;20.83;;;6.53;;
10450;SDS011;5273;51.290;6.918;2023-02-04T10:49:17;24.05;;;7.00;;
10450;SDS011;5273;51.290;6.918;2023-02-04T10:51:45;27.50;;;6.60;;
10450;SDS011;5273;51.290;6.918;2023-02-04T10:54:14;20.13;;;6.67;;
10450;SDS011;5273;51.290;6.918;2023-02-04T10:56:59;31.57;;;8.13;;
10450;SDS011;5273;51.290;6.918;2023-02-04T10:59:31;18.87;;;6.03;;
10450;SDS011;5273;51.290;6.918;2023-02-04T11:01:59;25.23;;;7.50;;
10450;SDS011;5273;51.290;6.918;2023-02-04T11:04:27;24.27;;;7.03;;
10450;SDS011;5273;51.290;6.918;2023-02-04T11:06:54;25.13;;;7.90;;
10450;SDS011;5273;51.290;6.918;2023-02-04T11:09:23;22.93;;;7.23;;
10450;SDS011;5273;51.290;6.918;2023-02-04T11:11:50;29.10;;;7.53;;
10450;SDS011;5273;51.290;6.918;2023-02-04T11:14:25;26.30;;;8.40;;
10450;SDS011;5273;51.290;6.918;2023-02-04T11:16:53;32.73;;;8.83;;
10450;SDS011;5273;51.290;6.918;2023-02-04T11:19:34;23.17;;;8.33;;
10450;SDS011;5273;51.290;6.918;2023-02-04T11:22:03;26.80;;;9.30;;
10450;SDS011;5273;51.290;6.918;2023-02-04T11:24:48;20.60;;;9.40;;
10450;SDS011;5273;51.290;6.918;2023-02-04T11:27:22;29.03;;;10.13;;
10450;SDS011;5273;51.290;6.918;2023-02-04T11:29:51;25.63;;;10.47;;
10450;SDS011;5273;51.290;6.918;2023-02-04T11:32:29;28.77;;;10.83;;
10450;SDS011;5273;51.290;6.918;2023-02-04T11:37:49;28.17;;;11.13;;
10450;SDS011;5273;51.290;6.918;2023-02-04T11:40:21;30.67;;;10.70;;
10450;SDS011;5273;51.290;6.918;2023-02-04T11:42:55;29.83;;;10.20;;
10450;SDS011;5273;51.290;6.918;2023-02-04T11:45:24;33.58;;;11.40;;
10450;SDS011;5273;51.290;6.918;2023-02-04T11:47:55;32.87;;;11.77;;
10450;SDS011;5273;51.290;6.918;2023-02-04T11:50:24;27.88;;;10.90;;
10450;SDS011;5273;51.290;6.918;2023-02-04T11:52:53;23.90;;;12.20;;
10450;SDS011;5273;51.290;6.918;2023-02-04T11:55:21;32.13;;;12.47;;
10450;SDS011;5273;51.290;6.918;2023-02-04T11:57:49;32.20;;;14.17;;
10450;SDS011;5273;51.290;6.918;2023-02-04T12:00:18;32.03;;;14.85;;
10450;SDS011;5273;51.290;6.918;2023-02-04T12:02:47;41.70;;;14.17;;
10450;SDS011;5273;51.290;6.918;2023-02-04T12:05:16;42.13;;;13.77;;
10450;SDS011;5273;51.290;6.918;2023-02-04T12:07:45;33.80;;;14.00;;
10450;SDS011;5273;51.290;6.918;2023-02-04T12:10:13;43.43;;;14.90;;
10450;SDS011;5273;51.290;6.918;2023-02-04T12:12:50;33.37;;;14.17;;
10450;SDS011;5273;51.290;6.918;2023-02-04T12:15:20;39.73;;;15.47;;
10450;SDS011;5273;51.290;6.918;2023-02-04T12:17:59;42.40;;;15.50;;
10450;SDS011;5273;51.290;6.918;2023-02-04T12:20:27;35.20;;;15.33;;
10450;SDS011;5273;51.290;6.918;2023-02-04T12:22:54;40.03;;;15.07;;
10450;SDS011;5273;51.290;6.918;2023-02-04T12:25:23;31.87;;;13.87;;
10450;SDS011;5273;51.290;6.918;2023-02-04T12:27:52;36.70;;;14.37;;
10450;SDS011;5273;51.290;6.918;2023-02-04T12:30:19;40.80;;;15.02;;
10450;SDS011;5273;51.290;6.918;2023-02-04T12:32:46;33.38;;;15.43;;
10450;SDS011;5273;51.290;6.918;2023-02-04T12:35:14;44.73;;;15.57;;
10450;SDS011;5273;51.290;6.918;2023-02-04T12:37:41;36.75;;;15.98;;
10450;SDS011;5273;51.290;6.918;2023-02-04T12:40:09;35.72;;;14.88;;
10450;SDS011;5273;51.290;6.918;2023-02-04T12:42:39;35.38;;;15.40;;
10450;SDS011;5273;51.290;6.918;2023-02-04T12:45:08;34.28;;;14.25;;
10450;SDS011;5273;51.290;6.918;2023-02-04T12:47:36;28.45;;;11.88;;
10450;SDS011;5273;51.290;6.918;2023-02-04T12:50:04;30.88;;;10.45;;
10450;SDS011;5273;51.290;6.918;2023-02-04T12:52:31;29.02;;;12.57;;
10450;SDS011;5273;51.290;6.918;2023-02-04T12:54:58;28.35;;;12.70;;
10450;SDS011;5273;51.290;6.918;2023-02-04T12:57:26;33.08;;;13.07;;
10450;SDS011;5273;51.290;6.918;2023-02-04T12:59:53;26.25;;;11.73;;
10450;SDS011;5273;51.290;6.918;2023-02-04T13:02:23;31.83;;;12.30;;
10450;SDS011;5273;51.290;6.918;2023-02-04T13:04:50;28.75;;;12.32;;
10450;SDS011;5273;51.290;6.918;2023-02-04T13:07:17;29.27;;;9.88;;
10450;SDS011;5273;51.290;6.918;2023-02-04T13:09:45;25.87;;;10.03;;
10450;SDS011;5273;51.290;6.918;2023-02-04T13:12:12;24.15;;;10.02;;
10450;SDS011;5273;51.290;6.918;2023-02-04T13:14:39;25.95;;;9.75;;
10450;SDS011;5273;51.290;6.918;2023-02-04T13:17:07;29.45;;;9.10;;
10450;SDS011;5273;51.290;6.918;2023-02-04T13:19:35;26.08;;;8.95;;
10450;SDS011;5273;51.290;6.918;2023-02-04T13:22:02;22.00;;;10.23;;
10450;SDS011;5273;51.290;6.918;2023-02-04T13:24:29;22.17;;;10.52;;
10450;SDS011;5273;51.290;6.918;2023-02-04T13:26:56;27.17;;;10.20;;
10450;SDS011;5273;51.290;6.918;2023-02-04T13:29:23;24.30;;;8.95;;
10450;SDS011;5273;51.290;6.918;2023-02-04T13:31:51;19.15;;;9.13;;
10450;SDS011;5273;51.290;6.918;2023-02-04T13:34:18;26.27;;;9.45;;
10450;SDS011;5273;51.290;6.918;2023-02-04T13:36:46;29.67;;;9.27;;
10450;SDS011;5273;51.290;6.918;2023-02-04T13:39:13;21.30;;;9.13;;
10450;SDS011;5273;51.290;6.918;2023-02-04T13:41:40;21.20;;;9.90;;
10450;SDS011;5273;51.290;6.918;2023-02-04T13:44:07;20.02;;;7.65;;
10450;SDS011;5273;51.290;6.918;2023-02-04T13:46:35;21.80;;;7.80;;
10450;SDS011;5273;51.290;6.918;2023-02-04T13:49:02;16.58;;;6.90;;
10450;SDS011;5273;51.290;6.918;2023-02-04T13:51:29;18.73;;;6.97;;
10450;SDS011;5273;51.290;6.918;2023-02-04T13:53:57;23.60;;;8.13;;
10450;SDS011;5273;51.290;6.918;2023-02-04T13:56:24;18.58;;;7.35;;
10450;SDS011;5273;51.290;6.918;2023-02-04T13:58:51;17.10;;;8.10;;
10450;SDS011;5273;51.290;6.918;2023-02-04T14:01:18;19.50;;;6.88;;
10450;SDS011;5273;51.290;6.918;2023-02-04T14:03:45;15.48;;;4.70;;
10450;SDS011;5273;51.290;6.918;2023-02-04T14:06:13;14.80;;;4.35;;
10450;SDS011;5273;51.290;6.918;2023-02-04T14:08:44;18.02;;;5.30;;
10450;SDS011;5273;51.290;6.918;2023-02-04T14:11:12;13.93;;;4.25;;
10450;SDS011;5273;51.290;6.918;2023-02-04T14:13:39;17.30;;;4.43;;
10450;SDS011;5273;51.290;6.918;2023-02-04T14:16:06;12.43;;;4.20;;
10450;SDS011;5273;51.290;6.918;2023-02-04T14:18:34;11.93;;;4.40;;
10450;SDS011;5273;51.290;6.918;2023-02-04T14:21:01;15.43;;;4.45;;
10450;SDS011;5273;51.290;6.918;2023-02-04T14:23:28;14.20;;;5.15;;
10450;SDS011;5273;51.290;6.918;2023-02-04T14:25:55;19.23;;;5.43;;
10450;SDS011;5273;51.290;6.918;2023-02-04T14:28:24;12.27;;;4.68;;
10450;SDS011;5273;51.290;6.918;2023-02-04T14:30:50;18.00;;;6.93;;
10450;SDS011;5273;51.290;6.918;2023-02-04T14:33:18;20.58;;;6.78;;
10450;SDS011;5273;51.290;6.918;2023-02-04T14:35:45;18.95;;;6.90;;
10450;SDS011;5273;51.290;6.918;2023-02-04T14:38:13;25.52;;;8.10;;
10450;SDS011;5273;51.290;6.918;2023-02-04T14:40:41;17.00;;;6.78;;
10450;SDS011;5273;51.290;6.918;2023-02-04T14:43:08;17.58;;;6.03;;
10450;SDS011;5273;51.290;6.918;2023-02-04T14:45:37;18.73;;;6.25;;
10450;SDS011;5273;51.290;6.918;2023-02-04T14:48:05;18.52;;;5.95;;
10450;SDS011;5273;51.290;6.918;2023-02-04T14:50:33;16.95;;;5.88;;
10450;SDS011;5273;51.290;6.918;2023-02-04T14:53:00;15.27;;;6.20;;